Boshof, South Africa
Current Conditions -  °F | °C
As of 9:00 PM on Friday 31 Oct 2014 (Local Time) from FAKM Reporting Station
NA  
Wind Chill: 77°   Ceiling: NA
Heat Index: 77°   Visibility: NA
Dew Point: 30°   Wind: 6mph
Humidity: 18%   Direction: 50°NE
Pressure: 29.97"   Gusts: NA
Location:  28.54°S, 25.24°E
Report Text: FAKM 311900Z AUTO 05005KT //// // ////// 25/M01 Q1015
Loading
Personal Weather Stations






























Interactive Weather Map
Tropical Storm Tracking
New forecast layout! Learn more

10-Day Weather Forecast

Advertisements
Track Severe Weather on mobile